createdAt,value
2022-11-24T00:01:34.506Z,99378.20
2022-11-24T00:04:06.938Z,99376.20
2022-11-24T00:06:37.011Z,99377.20
2022-11-24T00:09:10.115Z,99372.20
2022-11-24T00:11:39.347Z,99372.40
2022-11-24T00:14:08.442Z,99369.00
2022-11-24T00:16:39.140Z,99368.60
2022-11-24T00:19:10.298Z,99372.80
2022-11-24T00:21:39.715Z,99373.80
2022-11-24T00:24:08.907Z,99376.80
2022-11-24T00:26:38.381Z,99378.40
2022-11-24T00:29:08.633Z,99376.40
2022-11-24T00:31:41.263Z,99378.40
2022-11-24T00:34:15.561Z,99378.40
2022-11-24T00:36:45.274Z,99381.40
2022-11-24T00:39:16.900Z,99376.40
2022-11-24T00:41:46.341Z,99379.80
2022-11-24T00:44:15.725Z,99379.80
2022-11-24T00:46:45.170Z,99383.00
2022-11-24T00:49:14.597Z,99379.80
2022-11-24T00:51:43.926Z,99378.60
2022-11-24T00:54:13.241Z,99386.00
2022-11-24T00:56:42.304Z,99384.00
2022-11-24T00:59:11.354Z,99381.00
2022-11-24T01:01:40.458Z,99385.20
2022-11-24T01:04:09.803Z,99389.20
2022-11-24T01:06:38.846Z,99387.20
2022-11-24T01:09:07.900Z,99384.20
2022-11-24T01:11:55.579Z,99387.80
2022-11-24T01:14:26.275Z,99388.00
2022-11-24T01:16:55.889Z,99388.00
2022-11-24T01:19:25.097Z,99392.20
2022-11-24T01:21:54.310Z,99391.60
2022-11-24T01:24:23.604Z,99382.20
2022-11-24T01:26:52.633Z,99385.80
2022-11-24T01:29:21.927Z,99380.40
2022-11-24T01:31:51.234Z,99385.40
2022-11-24T01:34:20.556Z,99388.40
2022-11-24T01:36:49.886Z,99390.60
2022-11-24T01:39:19.145Z,99395.80
2022-11-24T01:41:48.251Z,99402.20
2022-11-24T01:44:27.530Z,99400.40
2022-11-24T01:47:37.018Z,99406.40
2022-11-24T01:50:09.689Z,99402.60
2022-11-24T01:52:53.234Z,99407.20
2022-11-24T01:55:30.419Z,99399.80
2022-11-24T01:58:08.301Z,99397.20
2022-11-24T02:00:40.571Z,99399.20
2022-11-24T02:03:11.645Z,99396.00
2022-11-24T02:05:51.912Z,99389.00
2022-11-24T02:08:47.805Z,99389.40
2022-11-24T02:11:17.428Z,99392.00
2022-11-24T02:13:48.500Z,99391.20
2022-11-24T02:16:18.052Z,99392.60
2022-11-24T02:18:47.454Z,99395.20
2022-11-24T02:21:18.557Z,99395.00
2022-11-24T02:24:17.756Z,99388.20
2022-11-24T02:26:50.307Z,99383.80
2022-11-24T02:29:21.544Z,99380.60
2022-11-24T02:32:02.671Z,99375.80
2022-11-24T02:34:32.284Z,99385.40
2022-11-24T02:37:01.723Z,99391.60
2022-11-24T02:39:30.966Z,99390.20
2022-11-24T02:42:06.195Z,99385.00
2022-11-24T02:44:41.793Z,99393.20
2022-11-24T02:47:13.604Z,99392.80
2022-11-24T02:49:42.971Z,99396.20
2022-11-24T02:52:12.108Z,99403.40
2022-11-24T02:54:41.559Z,99406.80
2022-11-24T02:57:11.699Z,99410.00
2022-11-24T02:59:40.801Z,99414.00
2022-11-24T03:02:11.040Z,99410.80
2022-11-24T03:04:40.150Z,99412.60
2022-11-24T03:07:10.231Z,99412.20
2022-11-24T03:09:39.260Z,99410.60
2022-11-24T03:12:08.686Z,99412.40
2022-11-24T03:14:37.761Z,99418.40
2022-11-24T03:17:07.625Z,99413.20
2022-11-24T03:19:36.566Z,99412.80
2022-11-24T03:22:05.668Z,99418.60
2022-11-24T03:24:34.879Z,99417.40
2022-11-24T03:27:04.459Z,99422.80
2022-11-24T03:29:33.699Z,99418.40
2022-11-24T03:32:03.320Z,99420.20
2022-11-24T03:34:32.693Z,99424.00
2022-11-24T03:37:02.080Z,99426.80
2022-11-24T03:39:31.155Z,99427.00
2022-11-24T03:42:00.184Z,99428.00
2022-11-24T03:44:29.293Z,99428.80
2022-11-24T03:46:58.443Z,99433.20
2022-11-24T03:49:27.542Z,99430.40
2022-11-24T03:51:56.585Z,99424.80
2022-11-24T03:54:25.919Z,99423.80
2022-11-24T03:56:54.972Z,99413.60
2022-11-24T03:59:24.039Z,99411.40
2022-11-24T04:01:53.060Z,99414.60
2022-11-24T04:04:21.998Z,99412.20
2022-11-24T04:06:50.952Z,99418.00
2022-11-24T04:09:19.925Z,99419.00
2022-11-24T04:12:07.553Z,99421.60
2022-11-24T04:14:36.853Z,99424.80
2022-11-24T04:17:07.252Z,99423.40
2022-11-24T04:19:36.385Z,99427.60
2022-11-24T04:22:05.456Z,99425.40
2022-11-24T04:24:34.819Z,99423.80
2022-11-24T04:27:04.277Z,99423.60
2022-11-24T04:29:33.517Z,99426.00
2022-11-24T04:32:02.679Z,99428.40
2022-11-24T04:34:32.290Z,99431.80
2022-11-24T04:37:01.559Z,99435.20
2022-11-24T04:39:30.534Z,99438.20
2022-11-24T04:42:00.074Z,99443.20
2022-11-24T04:44:29.177Z,99446.00
2022-11-24T04:46:58.208Z,99447.40
2022-11-24T04:49:27.361Z,99447.20
2022-11-24T04:51:56.348Z,99454.40
2022-11-24T04:54:25.360Z,99461.40
2022-11-24T04:56:54.512Z,99462.20
2022-11-24T04:59:23.532Z,99469.00
2022-11-24T05:01:52.695Z,99474.00
2022-11-24T05:04:22.327Z,99477.00
2022-11-24T05:06:51.466Z,99476.20
2022-11-24T05:09:20.459Z,99480.60
2022-11-24T05:11:49.485Z,99484.60
2022-11-24T05:14:18.523Z,99485.60
2022-11-24T05:16:47.644Z,99493.00
2022-11-24T05:19:16.892Z,99494.40
2022-11-24T05:21:45.760Z,99490.20
2022-11-24T05:24:14.999Z,99499.40
2022-11-24T05:26:44.114Z,99502.20
2022-11-24T05:29:13.341Z,99500.60
2022-11-24T05:31:42.378Z,99502.20
2022-11-24T05:34:11.530Z,99500.80
2022-11-24T05:36:56.747Z,99498.80
2022-11-24T05:39:25.823Z,99502.20
2022-11-24T05:41:54.709Z,99508.40
2022-11-24T05:44:23.617Z,99504.20
2022-11-24T05:46:52.583Z,99504.60
2022-11-24T05:49:21.615Z,99507.00
2022-11-24T05:51:50.518Z,99502.20
2022-11-24T05:54:19.549Z,99500.40
2022-11-24T05:56:48.377Z,99508.00
2022-11-24T05:59:17.068Z,99512.40
2022-11-24T06:01:45.906Z,99513.80
2022-11-24T06:04:14.845Z,99516.40
2022-11-24T06:06:43.648Z,99518.20
2022-11-24T06:09:12.359Z,99517.00
2022-11-24T06:11:41.127Z,99522.40
2022-11-24T06:14:11.633Z,99526.40
2022-11-24T06:16:41.159Z,99529.80
2022-11-24T06:19:11.849Z,99533.00
2022-11-24T06:21:40.703Z,99540.80
2022-11-24T06:24:09.801Z,99541.80
2022-11-24T06:26:38.528Z,99553.00
2022-11-24T06:29:07.507Z,99566.40
2022-11-24T06:31:36.676Z,99570.60
2022-11-24T06:34:11.968Z,99570.40
2022-11-24T06:36:41.114Z,99576.40
2022-11-24T06:39:11.138Z,99588.60
2022-11-24T06:41:39.958Z,99590.00
2022-11-24T06:44:09.047Z,99594.40
2022-11-24T06:46:38.332Z,99599.60
2022-11-24T06:49:07.064Z,99609.00
2022-11-24T06:51:36.137Z,99610.40
2022-11-24T06:54:11.020Z,99614.20
2022-11-24T06:56:40.111Z,99615.00
2022-11-24T06:59:19.229Z,99616.60
2022-11-24T07:01:48.160Z,99618.60
2022-11-24T07:04:17.206Z,99622.00
2022-11-24T07:06:46.444Z,99628.20
2022-11-24T07:09:15.284Z,99623.60
2022-11-24T07:11:44.357Z,99621.40
2022-11-24T07:14:13.104Z,99616.60
2022-11-24T07:16:41.852Z,99616.20
2022-11-24T07:19:11.515Z,99631.40
2022-11-24T07:21:40.255Z,99630.20
2022-11-24T07:24:09.334Z,99630.00
2022-11-24T07:26:38.286Z,99628.40
2022-11-24T07:29:07.180Z,99628.40
2022-11-24T07:31:35.876Z,99626.00
2022-11-24T07:34:04.720Z,99629.60
2022-11-24T07:36:33.402Z,99629.40
2022-11-24T07:39:02.135Z,99630.00
2022-11-24T07:41:30.922Z,99627.20
2022-11-24T07:43:59.777Z,99626.80
2022-11-24T07:46:29.255Z,99628.40
2022-11-24T07:48:58.605Z,99630.40
2022-11-24T07:52:00.596Z,99631.00
2022-11-24T07:54:29.746Z,99630.60
2022-11-24T07:57:01.731Z,99628.80
2022-11-24T07:59:41.647Z,99627.60
2022-11-24T08:02:14.180Z,99628.80
2022-11-24T08:04:43.128Z,99621.00
2022-11-24T08:07:12.146Z,99624.60
2022-11-24T08:09:41.164Z,99629.60
2022-11-24T08:12:10.170Z,99631.40
2022-11-24T08:14:38.965Z,99631.60
2022-11-24T08:17:07.758Z,99635.40
2022-11-24T08:19:36.545Z,99645.00
2022-11-24T08:22:05.280Z,99642.20
2022-11-24T08:24:35.174Z,99649.00
2022-11-24T08:27:04.806Z,99651.20
2022-11-24T08:29:33.737Z,99659.60
2022-11-24T08:32:02.451Z,99657.00
2022-11-24T08:34:31.832Z,99659.60
2022-11-24T08:37:00.736Z,99668.60
2022-11-24T08:39:29.528Z,99662.60
2022-11-24T08:41:58.498Z,99666.80
2022-11-24T08:44:29.045Z,99662.00
2022-11-24T08:46:57.778Z,99661.20
2022-11-24T08:49:26.851Z,99656.80
2022-11-24T08:51:58.182Z,99657.60
2022-11-24T08:54:27.145Z,99665.80
2022-11-24T08:56:56.028Z,99666.40
2022-11-24T08:59:24.888Z,99665.00
2022-11-24T09:01:53.783Z,99664.00
2022-11-24T09:04:22.727Z,99663.20
2022-11-24T09:06:51.772Z,99667.80
2022-11-24T09:09:20.526Z,99664.00
2022-11-24T09:11:49.283Z,99667.40
2022-11-24T09:14:18.158Z,99669.00
2022-11-24T09:16:47.064Z,99662.80
2022-11-24T09:19:15.871Z,99661.20
2022-11-24T09:21:44.708Z,99662.00
2022-11-24T09:24:13.547Z,99665.40
2022-11-24T09:26:47.320Z,99666.00
2022-11-24T09:29:17.525Z,99663.00
2022-11-24T09:31:46.389Z,99664.20
2022-11-24T09:34:16.312Z,99668.20
2022-11-24T09:36:45.119Z,99670.20
2022-11-24T09:39:14.089Z,99666.00
2022-11-24T09:42:25.820Z,99666.60
2022-11-24T09:45:00.567Z,99667.80
2022-11-24T09:47:50.141Z,99675.60
2022-11-24T09:50:34.705Z,99669.00
2022-11-24T09:53:09.752Z,99664.40
2022-11-24T09:55:48.965Z,99668.60
2022-11-24T09:58:43.005Z,99661.20
2022-11-24T10:01:29.085Z,99665.40
2022-11-24T10:04:04.302Z,99664.40
2022-11-24T10:07:33.040Z,99666.00
2022-11-24T10:10:09.788Z,99663.20
2022-11-24T10:13:10.926Z,99661.80
2022-11-24T10:16:04.751Z,99663.40
2022-11-24T10:18:46.356Z,99666.00
2022-11-24T10:21:17.965Z,99666.20
2022-11-24T10:24:18.834Z,99665.20
2022-11-24T10:26:59.613Z,99673.20
2022-11-24T10:29:40.876Z,99671.80
2022-11-24T10:32:24.832Z,99674.00
2022-11-24T10:35:15.004Z,99675.80
2022-11-24T10:38:07.522Z,99675.60
2022-11-24T10:40:57.316Z,99674.80
2022-11-24T10:43:29.343Z,99677.00
2022-11-24T10:46:20.221Z,99678.60
2022-11-24T10:48:57.782Z,99677.60
2022-11-24T10:52:14.341Z,99678.80
2022-11-24T10:54:59.297Z,99674.20
2022-11-24T10:57:40.748Z,99678.20
2022-11-24T11:00:24.522Z,99679.20
2022-11-24T11:03:33.349Z,99681.20
2022-11-24T11:06:16.289Z,99680.40
2022-11-24T11:08:45.243Z,99674.40
2022-11-24T11:11:27.682Z,99673.60
2022-11-24T11:14:10.697Z,99670.40
2022-11-24T11:16:49.623Z,99671.00
2022-11-24T11:20:00.263Z,99667.40
2022-11-24T11:22:33.173Z,99667.20
2022-11-24T11:25:36.680Z,99668.20
2022-11-24T11:28:19.053Z,99673.20
2022-11-24T11:31:22.496Z,99676.80
2022-11-24T11:34:04.567Z,99668.40
2022-11-24T11:36:53.363Z,99675.00
2022-11-24T11:39:45.394Z,99670.20
2022-11-24T11:43:06.503Z,99673.40
2022-11-24T11:45:45.925Z,99671.40
2022-11-24T11:48:26.911Z,99671.20
2022-11-24T11:55:01.502Z,99678.60
2022-11-24T11:58:06.715Z,99680.40
2022-11-24T12:00:42.614Z,99682.00
2022-11-24T12:03:17.623Z,99678.40
2022-11-24T12:06:11.762Z,99675.40
2022-11-24T12:09:21.015Z,99676.80
2022-11-24T12:12:46.776Z,99677.20
2022-11-24T12:15:32.163Z,99679.80
2022-11-24T12:18:55.122Z,99675.20
2022-11-24T12:21:37.286Z,99675.20
2022-11-24T12:24:45.088Z,99672.00
2022-11-24T12:27:47.842Z,99671.60
2022-11-24T12:30:22.683Z,99673.60
2022-11-24T12:33:11.658Z,99675.40
2022-11-24T12:36:08.583Z,99677.00
2022-11-24T12:39:07.382Z,99678.80
2022-11-24T12:42:52.922Z,99685.00
2022-11-24T12:45:39.430Z,99686.40
2022-11-24T12:48:24.722Z,99690.40
2022-11-24T12:50:56.623Z,99693.00
2022-11-24T12:53:32.500Z,99698.00
2022-11-24T12:56:10.061Z,99696.20
2022-11-24T12:59:22.222Z,99697.60
2022-11-24T13:02:48.231Z,99701.80
2022-11-24T13:05:23.783Z,99698.20
2022-11-24T13:08:01.947Z,99699.00
2022-11-24T13:13:27.067Z,99700.60
2022-11-24T13:19:09.380Z,99698.20
2022-11-24T13:21:41.222Z,99699.20
2022-11-24T13:24:20.136Z,99698.60
2022-11-24T13:26:54.025Z,99701.20
2022-11-24T13:29:29.113Z,99705.60
2022-11-24T13:32:21.409Z,99711.40
2022-11-24T13:34:55.671Z,99720.80
2022-11-24T13:37:34.620Z,99721.80
2022-11-24T13:40:13.742Z,99719.60
2022-11-24T13:42:58.031Z,99728.00
2022-11-24T13:45:42.274Z,99730.00
2022-11-24T13:48:20.541Z,99734.80
2022-11-24T13:50:53.692Z,99733.80
2022-11-24T13:53:49.533Z,99733.80
2022-11-24T13:56:22.239Z,99726.40
2022-11-24T13:58:57.249Z,99726.60
2022-11-24T14:01:28.950Z,99724.80
2022-11-24T14:04:29.915Z,99725.40
2022-11-24T14:09:55.102Z,99725.80
2022-11-24T14:12:27.267Z,99734.80
2022-11-24T14:15:36.462Z,99743.60
2022-11-24T14:18:22.420Z,99753.40
2022-11-24T14:20:51.259Z,99752.80
2022-11-24T14:23:20.050Z,99755.00
2022-11-24T14:25:53.219Z,99758.80
2022-11-24T14:28:31.295Z,99766.20
2022-11-24T14:31:26.175Z,99770.40
2022-11-24T14:34:17.132Z,99770.60
2022-11-24T14:36:45.998Z,99767.80
2022-11-24T14:39:19.002Z,99777.20
2022-11-24T14:42:21.760Z,99776.20
2022-11-24T14:45:03.410Z,99780.60
2022-11-24T14:47:45.117Z,99776.60
2022-11-24T14:50:19.812Z,99776.60
2022-11-24T14:52:58.393Z,99777.60
2022-11-24T14:55:33.439Z,99779.40
2022-11-24T14:58:02.119Z,99783.60
2022-11-24T15:00:33.851Z,99782.20
2022-11-24T15:03:02.380Z,99780.40
2022-11-24T15:05:55.064Z,99782.80
2022-11-24T15:08:26.810Z,99783.40
2022-11-24T15:11:04.822Z,99782.20
2022-11-24T15:13:38.542Z,99790.60
2022-11-24T15:16:16.398Z,99794.00
2022-11-24T15:18:49.502Z,99803.60
2022-11-24T15:21:34.701Z,99803.40
2022-11-24T15:24:20.227Z,99805.00
2022-11-24T15:26:48.791Z,99811.00
2022-11-24T15:29:17.381Z,99805.00
2022-11-24T15:31:51.002Z,99812.00
2022-11-24T15:34:21.222Z,99819.00
2022-11-24T15:36:49.940Z,99816.80
2022-11-24T15:39:18.661Z,99812.00
2022-11-24T15:41:47.341Z,99823.60
2022-11-24T15:44:16.180Z,99831.40
2022-11-24T15:46:44.854Z,99829.60
2022-11-24T15:49:13.761Z,99829.00
2022-11-24T15:51:46.381Z,99833.80
2022-11-24T15:54:19.659Z,99834.60
2022-11-24T15:56:48.421Z,99837.80
2022-11-24T15:59:20.688Z,99840.00
2022-11-24T16:01:51.151Z,99843.80
2022-11-24T16:04:20.159Z,99849.20
2022-11-24T16:06:49.181Z,99843.00
2022-11-24T16:09:18.081Z,99845.00
2022-11-24T16:11:46.733Z,99846.80
2022-11-24T16:14:15.585Z,99847.20
2022-11-24T16:16:44.638Z,99849.80
2022-11-24T16:19:16.102Z,99850.00
2022-11-24T16:21:49.020Z,99850.60
2022-11-24T16:24:17.641Z,99843.20
2022-11-24T16:26:46.307Z,99842.80
2022-11-24T16:29:15.307Z,99843.60
2022-11-24T16:31:44.799Z,99849.80
2022-11-24T16:34:13.621Z,99854.40
2022-11-24T16:36:42.251Z,99853.60
2022-11-24T16:39:10.983Z,99857.40
2022-11-24T16:41:39.521Z,99861.40
2022-11-24T16:44:08.220Z,99870.60
2022-11-24T16:46:36.843Z,99869.00
2022-11-24T16:49:05.584Z,99871.60
2022-11-24T16:51:35.165Z,99878.80
2022-11-24T16:54:04.922Z,99877.60
2022-11-24T16:56:33.742Z,99882.00
2022-11-24T16:59:02.584Z,99888.60
2022-11-24T17:01:33.178Z,99890.20
2022-11-24T17:04:02.605Z,99897.80
2022-11-24T17:06:33.901Z,99896.40
2022-11-24T17:09:02.743Z,99902.40
2022-11-24T17:11:31.682Z,99902.20
2022-11-24T17:14:00.402Z,99901.60
2022-11-24T17:16:29.848Z,99902.60
2022-11-24T17:18:59.148Z,99909.00
2022-11-24T17:21:28.940Z,99908.40
2022-11-24T17:24:05.682Z,99911.00
2022-11-24T17:26:35.640Z,99916.40
2022-11-24T17:29:04.500Z,99916.20
2022-11-24T17:31:36.182Z,99919.40
2022-11-24T17:34:06.860Z,99928.80
2022-11-24T17:36:36.410Z,99926.80
2022-11-24T17:39:07.499Z,99925.00
2022-11-24T17:41:36.620Z,99926.40
2022-11-24T17:44:06.663Z,99924.80
2022-11-24T17:46:37.460Z,99924.40
2022-11-24T17:49:07.234Z,99931.20
2022-11-24T17:51:36.022Z,99935.00
2022-11-24T17:54:24.623Z,99934.80
2022-11-24T17:56:53.742Z,99936.00
2022-11-24T17:59:22.470Z,99935.20
2022-11-24T18:01:51.110Z,99945.20
2022-11-24T18:04:19.931Z,99949.40
2022-11-24T18:06:48.620Z,99947.00
2022-11-24T18:09:17.200Z,99950.00
2022-11-24T18:11:48.201Z,99952.00
2022-11-24T18:14:16.881Z,99947.40
2022-11-24T18:16:45.675Z,99948.40
2022-11-24T18:19:14.390Z,99951.80
2022-11-24T18:21:46.906Z,99952.20
2022-11-24T18:24:18.537Z,99955.80
2022-11-24T18:26:50.866Z,99953.40
2022-11-24T18:29:19.564Z,99956.20
2022-11-24T18:31:48.363Z,99958.20
2022-11-24T18:34:17.060Z,99961.20
2022-11-24T18:36:47.861Z,99959.60
2022-11-24T18:39:18.460Z,99962.60
2022-11-24T18:41:47.899Z,99965.00
2022-11-24T18:44:16.823Z,99965.60
2022-11-24T18:46:45.640Z,99962.00
2022-11-24T18:49:14.482Z,99960.60
2022-11-24T18:51:43.905Z,99958.00
2022-11-24T18:54:12.631Z,99953.80
2022-11-24T18:56:41.342Z,99952.00
2022-11-24T18:59:10.040Z,99949.00
2022-11-24T19:01:38.717Z,99948.20
2022-11-24T19:04:07.660Z,99950.00
2022-11-24T19:06:38.520Z,99946.00
2022-11-24T19:09:13.782Z,99952.60
2022-11-24T19:11:47.622Z,99953.40
2022-11-24T19:14:19.590Z,99958.80
2022-11-24T19:16:48.597Z,99956.00
2022-11-24T19:19:17.651Z,99964.80
2022-11-24T19:21:46.426Z,99965.60
2022-11-24T19:24:14.963Z,99961.80
2022-11-24T19:26:43.621Z,99965.60
2022-11-24T19:29:12.500Z,99962.40
2022-11-24T19:31:41.608Z,99966.00
2022-11-24T19:34:10.433Z,99964.40
2022-11-24T19:36:41.201Z,99970.00
2022-11-24T19:39:17.076Z,99972.40
2022-11-24T19:41:46.023Z,99970.40
2022-11-24T19:44:14.874Z,99972.20
2022-11-24T19:46:43.540Z,99974.40
2022-11-24T19:49:12.668Z,99975.40
2022-11-24T19:51:41.651Z,99983.20
2022-11-24T19:54:14.982Z,99981.20
2022-11-24T19:56:43.740Z,99991.60
2022-11-24T19:59:13.963Z,99987.40
2022-11-24T20:01:42.872Z,99994.40
2022-11-24T20:04:15.862Z,99995.80
2022-11-24T20:06:47.482Z,99996.60
2022-11-24T20:09:18.264Z,99998.00
2022-11-24T20:11:48.900Z,99999.00
2022-11-24T20:14:19.721Z,99994.80
2022-11-24T20:16:48.915Z,99996.80
2022-11-24T20:19:19.031Z,100004.20
2022-11-24T20:21:49.780Z,100007.60
2022-11-24T20:24:25.200Z,100012.60
2022-11-24T20:26:58.635Z,100016.00
2022-11-24T20:29:32.562Z,100016.80
2022-11-24T20:32:01.673Z,100024.80
2022-11-24T20:34:30.744Z,100024.60
2022-11-24T20:36:59.741Z,100026.00
2022-11-24T20:39:29.153Z,100021.40
2022-11-24T20:41:58.560Z,100029.40
2022-11-24T20:44:28.260Z,100028.20
2022-11-24T20:47:00.602Z,100027.60
2022-11-24T20:49:29.628Z,100024.60
2022-11-24T20:51:58.500Z,100029.80
2022-11-24T20:54:27.300Z,100033.20
2022-11-24T20:56:56.311Z,100033.80
2022-11-24T20:59:26.215Z,100034.20
2022-11-24T21:01:59.767Z,100040.20
2022-11-24T21:04:28.822Z,100042.60
2022-11-24T21:06:58.120Z,100048.80
2022-11-24T21:09:27.881Z,100052.20
2022-11-24T21:11:56.820Z,100052.00
2022-11-24T21:14:26.836Z,100053.20
2022-11-24T21:16:58.090Z,100051.20
2022-11-24T21:19:27.083Z,100058.40
2022-11-24T21:21:55.962Z,100054.80
2022-11-24T21:24:24.959Z,100055.60
2022-11-24T21:26:53.860Z,100056.40
2022-11-24T21:29:24.440Z,100058.40
2022-11-24T21:31:53.309Z,100054.40
2022-11-24T21:34:22.584Z,100058.20
2022-11-24T21:36:51.676Z,100059.20
2022-11-24T21:39:21.113Z,100068.40
2022-11-24T21:41:50.259Z,100064.20
2022-11-24T21:44:19.161Z,100061.00
2022-11-24T21:46:54.375Z,100063.80
2022-11-24T21:49:25.140Z,100057.20
2022-11-24T21:51:56.230Z,100063.20
2022-11-24T21:54:25.484Z,100065.00
2022-11-24T21:56:54.881Z,100066.80
2022-11-24T21:59:23.988Z,100070.00
2022-11-24T22:01:52.911Z,100071.20
2022-11-24T22:04:21.781Z,100071.00
2022-11-24T22:06:53.523Z,100068.80
2022-11-24T22:09:22.821Z,100061.40
2022-11-24T22:11:53.154Z,100068.20
2022-11-24T22:14:22.120Z,100071.00
2022-11-24T22:16:51.185Z,100068.80
2022-11-24T22:19:21.143Z,100067.60
2022-11-24T22:21:49.939Z,100072.80
2022-11-24T22:24:21.781Z,100074.40
2022-11-24T22:26:55.292Z,100071.80
2022-11-24T22:29:24.180Z,100073.40
2022-11-24T22:31:52.835Z,100073.80
2022-11-24T22:34:21.980Z,100076.00
2022-11-24T22:36:50.871Z,100079.20
2022-11-24T22:39:19.970Z,100076.60
2022-11-24T22:41:48.640Z,100084.60
2022-11-24T22:44:17.439Z,100087.20
2022-11-24T22:46:46.600Z,100087.60
2022-11-24T22:49:15.540Z,100091.40
2022-11-24T22:51:45.143Z,100091.60
2022-11-24T22:54:14.641Z,100093.80
2022-11-24T22:56:43.520Z,100088.20
2022-11-24T22:59:12.155Z,100093.00
2022-11-24T23:01:40.960Z,100081.60
2022-11-24T23:04:09.799Z,100083.80
2022-11-24T23:06:38.860Z,100089.80
2022-11-24T23:09:11.041Z,100089.20
2022-11-24T23:11:41.801Z,100087.40
2022-11-24T23:14:16.239Z,100087.40
2022-11-24T23:16:45.137Z,100085.60
2022-11-24T23:19:15.284Z,100086.80
2022-11-24T23:21:44.191Z,100076.60
2022-11-24T23:24:16.201Z,100081.00
2022-11-24T23:26:44.973Z,100082.00
2022-11-24T23:29:14.148Z,100087.60
2022-11-24T23:31:43.100Z,100087.80
2022-11-24T23:34:14.890Z,100095.40
2022-11-24T23:36:43.824Z,100097.20
2022-11-24T23:39:14.848Z,100098.00
2022-11-24T23:41:43.926Z,100098.60
2022-11-24T23:44:12.871Z,100098.20
2022-11-24T23:46:41.713Z,100101.60
2022-11-24T23:49:10.557Z,100097.60
2022-11-24T23:51:42.339Z,100099.40
2022-11-24T23:54:29.451Z,100104.80
2022-11-24T23:56:58.319Z,100103.20
2022-11-24T23:59:27.344Z,100094.20
